Pagrindinis puslapis
METAR-TAF:

METAR-TAF

Oro uostai :

Fort Hood-Kilinas, Teksasas, Jungtinės Amerikos Valstijos

platuma: 31-06N, ilguma: 097-20W, Aukštis: 283 m

Dabartinis oras

Ataskaita buvo paskelbta 44 minutes, ne 05:58 UTC
Ramus vėjas
Temperatūra 18°C
Drėgmė 77%
Slėgis 1013 hPa
Matomumas: 16.1 km
Giedras dangus

METAR: KHLR 270558Z AUTO 00000KT 10SM CLR 18/14 A2992 RMK AO2 SLP123 T01810143 10264 20181 402770175 58000

Laikas: 00:42 (06:42 UTC)


TAF: trūkstamas

Orai ataskaitas ir orų prognozės (METAR, TAF).

turimą stotys yra geltonos ir raudonos taškus žemėlapyje.

Perkelti pele per norėdami pamatyti stoties vardą.

Tada spustelėkite, norėdami matyti oro stebėjimo ir prognozės.

Norėdami pakeisti žemėlapį: spustelėkite ant žalios mygtukų su juodo kryžiaus žemyn,; žalią mygtuką su brūkšneliu, jei norite nutolinti; arba žalių rodyklių gretimoms žemėlapius.


METAR-TAF: